createdAt,value
2019-03-15T00:01:40.964Z,3.80
2019-03-15T00:04:09.627Z,3.60
2019-03-15T00:06:38.313Z,4.30
2019-03-15T00:09:09.072Z,3.97
2019-03-15T00:11:38.027Z,4.00
2019-03-15T00:14:06.639Z,3.93
2019-03-15T00:16:35.192Z,3.73
2019-03-15T00:19:03.911Z,3.33
2019-03-15T00:21:32.575Z,3.97
2019-03-15T00:24:01.118Z,3.80
2019-03-15T00:26:29.761Z,4.03
2019-03-15T00:28:58.351Z,3.83
2019-03-15T00:31:26.907Z,4.07
2019-03-15T00:33:55.581Z,3.73
2019-03-15T00:36:24.114Z,5.93
2019-03-15T00:38:53.900Z,4.23
2019-03-15T00:41:22.871Z,4.80
2019-03-15T00:43:51.407Z,4.80
2019-03-15T00:46:19.876Z,4.50
2019-03-15T00:48:48.388Z,4.03
2019-03-15T00:51:16.851Z,3.60
2019-03-15T00:53:45.327Z,3.70
2019-03-15T00:56:14.053Z,5.20
2019-03-15T00:58:42.780Z,4.27
2019-03-15T01:01:11.533Z,5.00
2019-03-15T01:03:40.160Z,4.90
2019-03-15T01:06:08.768Z,4.57
2019-03-15T01:08:37.276Z,4.80
2019-03-15T01:11:05.839Z,4.00
2019-03-15T01:13:34.440Z,4.47
2019-03-15T01:16:02.979Z,5.57
2019-03-15T01:18:31.524Z,4.87
2019-03-15T01:21:00.040Z,4.63
2019-03-15T01:23:28.659Z,3.90
2019-03-15T01:25:57.132Z,4.23
2019-03-15T01:28:25.636Z,4.53
2019-03-15T01:30:56.444Z,5.10
2019-03-15T01:33:24.974Z,5.80
2019-03-15T01:35:53.446Z,5.87
2019-03-15T01:38:21.906Z,5.07
2019-03-15T01:40:50.391Z,4.47
2019-03-15T01:43:19.029Z,4.60
2019-03-15T01:45:47.645Z,5.03
2019-03-15T01:48:17.774Z,5.23
2019-03-15T01:50:46.600Z,4.90
2019-03-15T01:53:15.099Z,5.13
2019-03-15T01:55:43.682Z,5.17
2019-03-15T01:58:12.148Z,5.37
2019-03-15T02:00:40.896Z,5.17
2019-03-15T02:03:09.387Z,5.47
2019-03-15T02:05:37.895Z,5.33
2019-03-15T02:08:06.377Z,5.93
2019-03-15T02:10:34.963Z,5.57
2019-03-15T02:13:03.597Z,4.70
2019-03-15T02:15:32.041Z,4.80
2019-03-15T02:18:00.614Z,5.33
2019-03-15T02:20:29.289Z,5.27
2019-03-15T02:22:58.370Z,5.73
2019-03-15T02:25:27.460Z,4.63
2019-03-15T02:27:56.165Z,5.53
2019-03-15T02:30:24.699Z,5.10
2019-03-15T02:32:53.206Z,5.30
2019-03-15T02:35:21.819Z,5.47
2019-03-15T02:37:50.297Z,4.47
2019-03-15T02:40:18.771Z,5.40
2019-03-15T02:42:47.368Z,4.97
2019-03-15T02:45:15.832Z,5.67
2019-03-15T02:47:44.328Z,4.40
2019-03-15T02:50:12.962Z,5.23
2019-03-15T02:52:42.293Z,3.53
2019-03-15T02:55:11.164Z,3.70
2019-03-15T02:57:39.765Z,4.27
2019-03-15T03:00:09.680Z,3.63
2019-03-15T03:02:38.188Z,4.63
2019-03-15T03:05:09.326Z,4.17
2019-03-15T03:07:37.811Z,3.40
2019-03-15T03:10:08.272Z,4.03
2019-03-15T03:12:36.770Z,4.17
2019-03-15T03:15:06.577Z,4.03
2019-03-15T03:17:35.060Z,3.93
2019-03-15T03:20:05.267Z,3.60
2019-03-15T03:22:33.765Z,3.50
2019-03-15T03:25:02.304Z,3.90
2019-03-15T03:27:30.787Z,3.50
2019-03-15T03:29:59.321Z,4.20
2019-03-15T03:32:27.826Z,3.77
2019-03-15T03:34:56.307Z,4.70
2019-03-15T03:37:24.832Z,3.87
2019-03-15T03:39:53.378Z,4.13
2019-03-15T03:42:21.908Z,4.63
2019-03-15T03:44:50.428Z,4.17
2019-03-15T03:47:18.903Z,3.90
2019-03-15T03:49:47.371Z,5.37
2019-03-15T03:52:15.884Z,4.20
2019-03-15T03:54:44.368Z,4.23
2019-03-15T03:57:12.830Z,4.67
2019-03-15T03:59:41.336Z,4.27
2019-03-15T04:02:09.791Z,4.03
2019-03-15T04:04:38.361Z,4.53
2019-03-15T04:07:06.841Z,4.23
2019-03-15T04:09:35.311Z,4.87
2019-03-15T04:12:03.908Z,4.90
2019-03-15T04:14:32.390Z,4.63
2019-03-15T04:17:00.868Z,5.07
2019-03-15T04:19:29.381Z,5.20
2019-03-15T04:21:57.847Z,5.20
2019-03-15T04:24:26.316Z,4.27
2019-03-15T04:26:54.839Z,5.73
2019-03-15T04:29:23.319Z,5.57
2019-03-15T04:31:51.807Z,5.60
2019-03-15T04:34:20.303Z,4.63
2019-03-15T04:36:48.821Z,5.67
2019-03-15T04:39:17.293Z,5.40
2019-03-15T04:41:46.121Z,5.10
2019-03-15T04:44:14.785Z,5.00
2019-03-15T04:46:43.259Z,4.40
2019-03-15T04:49:11.772Z,4.60
2019-03-15T04:51:40.247Z,5.53
2019-03-15T04:54:08.715Z,5.00
2019-03-15T04:56:37.236Z,4.53
2019-03-15T04:59:05.743Z,4.47
2019-03-15T05:01:34.241Z,4.30
2019-03-15T05:04:02.767Z,3.80
2019-03-15T05:06:31.293Z,4.43
2019-03-15T05:08:59.766Z,5.00
2019-03-15T05:11:28.269Z,4.40
2019-03-15T05:13:58.816Z,4.93
2019-03-15T05:16:26.883Z,4.87
2019-03-15T05:18:55.348Z,4.53
2019-03-15T05:21:23.913Z,4.30
2019-03-15T05:23:52.515Z,4.33
2019-03-15T05:26:21.080Z,4.53
2019-03-15T05:28:49.579Z,4.57
2019-03-15T05:31:18.131Z,4.63
2019-03-15T05:33:46.591Z,5.10
2019-03-15T05:36:15.059Z,5.27
2019-03-15T05:38:43.619Z,4.90
2019-03-15T05:41:12.151Z,4.37
2019-03-15T05:43:40.615Z,5.00
2019-03-15T05:46:09.083Z,4.87
2019-03-15T05:48:37.614Z,4.20
2019-03-15T05:51:06.145Z,5.50
2019-03-15T05:53:34.631Z,4.30
2019-03-15T05:56:03.218Z,4.90
2019-03-15T05:58:31.686Z,4.77
2019-03-15T06:01:00.204Z,5.20
2019-03-15T06:03:28.688Z,5.43
2019-03-15T06:05:57.155Z,4.90
2019-03-15T06:08:27.596Z,5.40
2019-03-15T06:10:55.803Z,5.03
2019-03-15T06:13:24.275Z,5.37
2019-03-15T06:15:55.790Z,6.10
2019-03-15T06:18:24.254Z,5.33
2019-03-15T06:20:52.739Z,5.67
2019-03-15T06:23:21.309Z,5.57
2019-03-15T06:25:49.801Z,4.90
2019-03-15T06:28:18.395Z,4.27
2019-03-15T06:30:46.967Z,4.70
2019-03-15T06:33:15.455Z,4.30
2019-03-15T06:35:43.947Z,3.47
2019-03-15T06:38:12.426Z,3.97
2019-03-15T06:40:40.935Z,3.67
2019-03-15T06:43:09.454Z,3.90
2019-03-15T06:45:41.874Z,4.00
2019-03-15T06:48:11.764Z,4.33
2019-03-15T06:50:40.449Z,3.77
2019-03-15T06:53:09.039Z,5.10
2019-03-15T06:55:37.484Z,4.50
2019-03-15T06:58:05.983Z,5.97
2019-03-15T07:00:34.529Z,4.83
2019-03-15T07:03:02.999Z,5.23
2019-03-15T07:05:31.520Z,5.73
2019-03-15T07:08:00.936Z,5.73
2019-03-15T07:10:29.467Z,6.13
2019-03-15T07:12:58.012Z,5.63
2019-03-15T07:15:26.545Z,6.03
2019-03-15T07:17:55.161Z,5.97
2019-03-15T07:20:23.740Z,6.00
2019-03-15T07:22:52.427Z,5.60
2019-03-15T07:25:20.948Z,5.53
2019-03-15T07:27:49.518Z,5.80
2019-03-15T07:30:18.108Z,6.60
2019-03-15T07:32:46.698Z,7.00
2019-03-15T07:35:15.223Z,6.10
2019-03-15T07:37:45.665Z,7.53
2019-03-15T07:40:13.838Z,7.07
2019-03-15T07:42:42.351Z,7.10
2019-03-15T07:45:12.470Z,6.57
2019-03-15T07:47:41.320Z,7.00
2019-03-15T07:50:14.248Z,5.80
2019-03-15T07:52:42.157Z,7.03
2019-03-15T07:55:11.198Z,6.97
2019-03-15T07:57:40.760Z,6.33
2019-03-15T08:00:17.302Z,6.33
2019-03-15T08:02:46.025Z,6.67
2019-03-15T08:05:14.710Z,6.83
2019-03-15T08:07:45.657Z,7.20
2019-03-15T08:10:14.024Z,7.07
2019-03-15T08:12:42.566Z,6.47
2019-03-15T08:15:12.608Z,8.20
2019-03-15T08:17:41.202Z,7.03
2019-03-15T08:20:12.025Z,7.63
2019-03-15T08:22:40.622Z,7.37
2019-03-15T08:25:10.415Z,7.53
2019-03-15T08:27:38.893Z,7.03
2019-03-15T08:30:18.605Z,7.43
2019-03-15T08:32:47.132Z,8.13
2019-03-15T08:35:15.770Z,8.83
2019-03-15T08:37:44.211Z,8.60
2019-03-15T08:40:13.735Z,7.40
2019-03-15T08:42:42.345Z,8.77
2019-03-15T08:45:13.279Z,8.13
2019-03-15T08:47:41.716Z,7.80
2019-03-15T08:50:15.605Z,6.97
2019-03-15T08:52:44.597Z,8.60
2019-03-15T08:55:13.883Z,7.07
2019-03-15T08:57:44.330Z,8.47
2019-03-15T09:00:15.026Z,8.27
2019-03-15T09:02:43.634Z,8.30
2019-03-15T09:05:13.356Z,6.90
2019-03-15T09:07:42.027Z,8.97
2019-03-15T09:10:22.674Z,9.57
2019-03-15T09:12:46.079Z,8.70
2019-03-15T09:15:14.643Z,7.73
2019-03-15T09:17:43.434Z,7.33
2019-03-15T09:20:13.153Z,8.00
2019-03-15T09:22:41.715Z,7.97
2019-03-15T09:25:19.175Z,7.33
2019-03-15T09:27:45.237Z,8.00
2019-03-15T09:30:23.284Z,7.03
2019-03-15T09:32:46.601Z,6.57
2019-03-15T09:35:15.285Z,7.73
2019-03-15T09:37:47.084Z,7.20
2019-03-15T09:40:15.247Z,7.93
2019-03-15T09:42:43.873Z,7.17
2019-03-15T09:45:19.301Z,7.97
2019-03-15T09:47:48.022Z,6.93
2019-03-15T09:50:26.463Z,8.93
2019-03-15T09:52:47.451Z,7.67
2019-03-15T09:55:16.116Z,7.30
2019-03-15T09:57:44.996Z,7.50
2019-03-15T10:00:20.338Z,6.20
2019-03-15T10:02:48.929Z,7.07
2019-03-15T10:05:17.511Z,6.90
2019-03-15T10:07:46.329Z,5.40
2019-03-15T10:10:18.890Z,6.23
2019-03-15T10:12:47.576Z,5.57
2019-03-15T10:15:17.027Z,5.57
2019-03-15T10:17:45.754Z,5.57
2019-03-15T10:20:14.740Z,5.13
2019-03-15T10:22:43.325Z,4.97
2019-03-15T10:25:13.325Z,5.23
2019-03-15T10:27:42.023Z,5.37
2019-03-15T10:30:18.509Z,3.80
2019-03-15T10:32:47.174Z,5.23
2019-03-15T10:35:15.970Z,4.20
2019-03-15T10:37:44.527Z,3.80
2019-03-15T10:40:21.115Z,4.20
2019-03-15T10:42:49.696Z,4.73
2019-03-15T10:45:18.275Z,5.10
2019-03-15T10:47:46.730Z,4.47
2019-03-15T10:50:20.153Z,3.17
2019-03-15T10:52:48.937Z,3.63
2019-03-15T10:55:20.526Z,3.67
2019-03-15T10:57:48.020Z,4.57
2019-03-15T11:00:20.419Z,3.80
2019-03-15T11:02:49.207Z,3.40
2019-03-15T11:05:17.892Z,3.30
2019-03-15T11:07:46.575Z,2.60
2019-03-15T11:10:15.164Z,3.07
2019-03-15T11:12:43.743Z,3.70
2019-03-15T11:15:16.612Z,3.27
2019-03-15T11:17:45.213Z,3.67
2019-03-15T11:20:14.093Z,3.40
2019-03-15T11:22:42.791Z,3.80
2019-03-15T11:25:12.387Z,3.83
2019-03-15T11:27:40.973Z,2.93
2019-03-15T11:30:13.596Z,3.00
2019-03-15T11:32:42.336Z,4.03
2019-03-15T11:35:11.505Z,3.10
2019-03-15T11:37:40.122Z,2.80
2019-03-15T11:40:14.060Z,3.10
2019-03-15T11:42:41.884Z,3.13
2019-03-15T11:45:11.146Z,2.90
2019-03-15T11:47:50.711Z,3.10
2019-03-15T11:50:18.696Z,3.23
2019-03-15T11:52:47.377Z,3.40
2019-03-15T11:55:16.158Z,3.23
2019-03-15T11:57:44.849Z,3.43
2019-03-15T12:00:17.029Z,3.93
2019-03-15T12:02:45.679Z,2.97
2019-03-15T12:05:14.688Z,3.47
2019-03-15T12:07:43.375Z,3.20
2019-03-15T12:10:13.094Z,4.17
2019-03-15T12:12:41.652Z,3.63
2019-03-15T12:15:15.475Z,2.57
2019-03-15T12:17:44.149Z,3.13
2019-03-15T12:20:13.143Z,4.07
2019-03-15T12:22:41.828Z,3.50
2019-03-15T12:25:11.018Z,3.77
2019-03-15T12:27:39.919Z,3.70
2019-03-15T12:30:16.484Z,3.17
2019-03-15T12:32:45.282Z,3.30
2019-03-15T12:35:14.648Z,3.50
2019-03-15T12:37:43.390Z,3.60
2019-03-15T12:40:14.125Z,4.03
2019-03-15T12:42:42.890Z,3.20
2019-03-15T12:45:12.239Z,3.70
2019-03-15T12:47:40.868Z,4.30
2019-03-15T12:50:11.792Z,3.60
2019-03-15T12:52:47.700Z,3.60
2019-03-15T12:55:14.388Z,4.27
2019-03-15T12:57:43.178Z,4.20
2019-03-15T13:00:18.561Z,4.47
2019-03-15T13:02:47.305Z,4.43
2019-03-15T13:05:16.096Z,4.53
2019-03-15T13:07:44.784Z,4.03
2019-03-15T13:10:16.634Z,4.30
2019-03-15T13:12:45.443Z,4.20
2019-03-15T13:15:15.152Z,4.63
2019-03-15T13:17:43.710Z,4.00
2019-03-15T13:20:17.074Z,4.33
2019-03-15T13:22:45.796Z,3.80
2019-03-15T13:25:14.469Z,4.70
2019-03-15T13:27:43.101Z,5.90
2019-03-15T13:30:13.801Z,5.20
2019-03-15T13:32:42.315Z,4.13
2019-03-15T13:35:10.875Z,4.33
2019-03-15T13:37:42.435Z,4.33
2019-03-15T13:40:20.302Z,4.53
2019-03-15T13:42:49.090Z,5.47
2019-03-15T13:45:18.000Z,5.00
2019-03-15T13:47:46.873Z,5.10
2019-03-15T13:50:19.440Z,5.37
2019-03-15T13:52:48.134Z,6.20
2019-03-15T13:55:16.700Z,4.40
2019-03-15T13:57:45.423Z,6.17
2019-03-15T14:00:18.266Z,5.00
2019-03-15T14:02:46.780Z,4.57
2019-03-15T14:05:15.344Z,6.13
2019-03-15T14:07:44.026Z,5.70
2019-03-15T14:10:13.821Z,6.23
2019-03-15T14:12:42.604Z,5.00
2019-03-15T14:15:12.739Z,6.10
2019-03-15T14:17:41.321Z,4.53
2019-03-15T14:20:11.338Z,4.80
2019-03-15T14:22:40.024Z,6.00
2019-03-15T14:25:13.607Z,4.83
2019-03-15T14:27:42.309Z,5.40
2019-03-15T14:30:12.651Z,5.33
2019-03-15T14:32:41.222Z,5.43
2019-03-15T14:35:10.511Z,4.20
2019-03-15T14:37:39.223Z,4.70
2019-03-15T14:40:12.267Z,4.77
2019-03-15T14:42:41.104Z,5.60
2019-03-15T14:45:12.623Z,5.03
2019-03-15T14:47:41.394Z,5.13
2019-03-15T14:50:13.887Z,5.07
2019-03-15T14:52:42.576Z,4.33
2019-03-15T14:55:13.821Z,5.10
2019-03-15T14:57:52.217Z,4.97
2019-03-15T15:00:17.132Z,5.43
2019-03-15T15:02:45.707Z,5.87
2019-03-15T15:05:14.387Z,4.77
2019-03-15T15:07:43.052Z,6.30
2019-03-15T15:10:12.930Z,5.40
2019-03-15T15:12:41.672Z,4.90
2019-03-15T15:15:12.813Z,5.07
2019-03-15T15:17:41.606Z,5.20
2019-03-15T15:20:12.337Z,4.73
2019-03-15T15:22:42.658Z,5.03
2019-03-15T15:25:12.268Z,4.53
2019-03-15T15:27:40.846Z,5.43
2019-03-15T15:30:14.036Z,4.07
2019-03-15T15:32:42.925Z,3.93
2019-03-15T15:35:12.332Z,4.27
2019-03-15T15:37:40.968Z,3.67
2019-03-15T15:40:13.868Z,3.90
2019-03-15T15:42:42.463Z,4.30
2019-03-15T15:45:11.913Z,4.00
2019-03-15T15:47:40.458Z,3.80
2019-03-15T15:50:10.274Z,4.10
2019-03-15T15:52:38.956Z,4.23
2019-03-15T15:55:10.238Z,3.93
2019-03-15T15:57:38.987Z,4.40
2019-03-15T16:00:13.814Z,4.70
2019-03-15T16:02:42.997Z,3.60
2019-03-15T16:05:13.344Z,4.47
2019-03-15T16:07:42.124Z,3.70
2019-03-15T16:10:17.847Z,3.73
2019-03-15T16:12:45.832Z,4.17
2019-03-15T16:15:15.846Z,3.50
2019-03-15T16:17:45.647Z,4.03
2019-03-15T16:20:14.868Z,3.60
2019-03-15T16:22:43.550Z,4.40
2019-03-15T16:25:12.557Z,5.37
2019-03-15T16:27:41.362Z,3.53
2019-03-15T16:30:13.171Z,4.13
2019-03-15T16:32:41.874Z,5.13
2019-03-15T16:35:11.993Z,4.47
2019-03-15T16:37:40.691Z,4.97
2019-03-15T16:40:13.430Z,5.90
2019-03-15T16:42:42.017Z,5.57
2019-03-15T16:45:19.106Z,6.17
2019-03-15T16:47:47.901Z,5.83
2019-03-15T16:50:16.689Z,6.03
2019-03-15T16:52:45.590Z,6.57
2019-03-15T16:55:14.194Z,5.20
2019-03-15T16:57:42.954Z,5.43
2019-03-15T17:00:13.680Z,6.03
2019-03-15T17:02:42.474Z,6.13
2019-03-15T17:05:12.236Z,6.53
2019-03-15T17:07:40.964Z,6.37
2019-03-15T17:10:16.961Z,5.20
2019-03-15T17:12:45.921Z,6.20
2019-03-15T17:15:19.384Z,5.77
2019-03-15T17:17:48.316Z,6.47
2019-03-15T17:20:16.899Z,6.10
2019-03-15T17:22:45.372Z,5.93
2019-03-15T17:25:14.051Z,6.87
2019-03-15T17:27:42.834Z,5.73
2019-03-15T17:30:16.143Z,6.10
2019-03-15T17:32:44.808Z,6.83
2019-03-15T17:35:20.398Z,5.37
2019-03-15T17:37:48.978Z,5.17
2019-03-15T17:40:21.509Z,5.80
2019-03-15T17:42:50.276Z,5.83
2019-03-15T17:45:18.981Z,5.70
2019-03-15T17:47:47.673Z,5.80
2019-03-15T17:50:21.085Z,6.50
2019-03-15T17:52:49.778Z,6.10
2019-03-15T17:55:18.444Z,4.97
2019-03-15T17:57:46.922Z,5.87
2019-03-15T18:00:24.888Z,6.77
2019-03-15T18:02:53.413Z,5.87
2019-03-15T18:05:21.965Z,7.10
2019-03-15T18:07:50.585Z,6.30
2019-03-15T18:10:19.254Z,6.03
2019-03-15T18:12:47.835Z,7.17
2019-03-15T18:15:16.838Z,5.37
2019-03-15T18:17:45.781Z,5.57
2019-03-15T18:20:14.396Z,6.33
2019-03-15T18:22:43.098Z,6.73
2019-03-15T18:25:11.623Z,5.40
2019-03-15T18:27:40.237Z,5.67
2019-03-15T18:30:13.940Z,5.60
2019-03-15T18:32:42.623Z,6.73
2019-03-15T18:35:11.513Z,5.50
2019-03-15T18:37:40.096Z,6.20
2019-03-15T18:40:19.648Z,6.90
2019-03-15T18:42:48.318Z,6.20
2019-03-15T18:45:17.921Z,6.30
2019-03-15T18:47:46.727Z,6.77
2019-03-15T18:50:17.813Z,5.57
2019-03-15T18:52:46.436Z,7.40
2019-03-15T18:55:15.124Z,6.63
2019-03-15T18:57:43.913Z,6.00
2019-03-15T19:00:23.551Z,6.50
2019-03-15T19:02:52.236Z,6.80
2019-03-15T19:05:20.922Z,7.47
2019-03-15T19:07:49.604Z,7.77
2019-03-15T19:10:18.288Z,6.73
2019-03-15T19:12:46.977Z,6.00
2019-03-15T19:15:19.518Z,5.93
2019-03-15T19:17:48.242Z,7.37
2019-03-15T19:20:17.332Z,6.47
2019-03-15T19:22:46.015Z,6.80
2019-03-15T19:25:15.419Z,6.90
2019-03-15T19:27:44.089Z,6.47
2019-03-15T19:30:18.009Z,6.63
2019-03-15T19:32:46.590Z,8.50
2019-03-15T19:35:15.290Z,6.40
2019-03-15T19:37:43.813Z,5.83
2019-03-15T19:40:19.468Z,6.40
2019-03-15T19:42:48.192Z,6.53
2019-03-15T19:45:17.499Z,6.00
2019-03-15T19:47:46.296Z,6.27
2019-03-15T19:50:17.182Z,6.97
2019-03-15T19:52:45.896Z,6.70
2019-03-15T19:55:15.394Z,7.43
2019-03-15T19:57:43.972Z,6.67
2019-03-15T20:00:15.341Z,7.20
2019-03-15T20:02:44.118Z,7.67
2019-03-15T20:05:12.913Z,7.10
2019-03-15T20:07:41.615Z,6.73
2019-03-15T20:10:17.410Z,6.93
2019-03-15T20:12:46.237Z,7.30
2019-03-15T20:15:15.819Z,7.47
2019-03-15T20:17:44.520Z,7.47
2019-03-15T20:20:17.081Z,8.90
2019-03-15T20:22:45.675Z,7.23
2019-03-15T20:25:15.284Z,6.47
2019-03-15T20:27:43.862Z,6.77
2019-03-15T20:30:21.467Z,7.60
2019-03-15T20:32:48.606Z,7.70
2019-03-15T20:35:17.325Z,7.37
2019-03-15T20:37:46.095Z,7.27
2019-03-15T20:40:14.965Z,5.80
2019-03-15T20:42:43.777Z,6.13
2019-03-15T20:45:20.400Z,6.20
2019-03-15T20:47:49.009Z,6.97
2019-03-15T20:50:17.695Z,6.37
2019-03-15T20:52:46.379Z,6.73
2019-03-15T20:55:15.169Z,7.27
2019-03-15T20:57:44.369Z,7.83
2019-03-15T21:00:34.419Z,7.17
2019-03-15T21:02:50.831Z,7.30
2019-03-15T21:05:19.525Z,6.90
2019-03-15T21:07:48.314Z,6.10
2019-03-15T21:10:18.741Z,6.17
2019-03-15T21:12:47.637Z,7.93
2019-03-15T21:15:17.259Z,7.90
2019-03-15T21:17:46.024Z,6.87
2019-03-15T21:20:16.861Z,6.77
2019-03-15T21:22:45.534Z,8.03
2019-03-15T21:25:14.326Z,6.03
2019-03-15T21:27:52.963Z,6.27
2019-03-15T21:30:21.327Z,6.27
2019-03-15T21:32:50.010Z,8.13
2019-03-15T21:35:18.702Z,5.77
2019-03-15T21:37:47.289Z,6.40
2019-03-15T21:40:17.321Z,7.23
2019-03-15T21:42:45.978Z,6.30
2019-03-15T21:45:14.659Z,6.73
2019-03-15T21:47:43.348Z,6.13
2019-03-15T21:50:14.057Z,6.33
2019-03-15T21:52:42.659Z,6.57
2019-03-15T21:55:11.550Z,5.80
2019-03-15T21:57:40.131Z,6.00
2019-03-15T22:00:12.097Z,5.57
2019-03-15T22:02:40.810Z,6.23
2019-03-15T22:05:09.773Z,6.50
2019-03-15T22:07:38.458Z,6.70
2019-03-15T22:10:10.413Z,5.90
2019-03-15T22:12:38.995Z,6.37
2019-03-15T22:15:09.466Z,5.80
2019-03-15T22:17:38.360Z,5.17
2019-03-15T22:20:12.015Z,5.87
2019-03-15T22:22:40.700Z,5.80
2019-03-15T22:25:09.680Z,4.67
2019-03-15T22:27:38.494Z,4.63
2019-03-15T22:30:15.985Z,4.90
2019-03-15T22:32:44.775Z,4.23
2019-03-15T22:35:13.657Z,4.37
2019-03-15T22:37:42.351Z,3.90
2019-03-15T22:40:12.387Z,4.10
2019-03-15T22:42:41.030Z,3.77
2019-03-15T22:45:14.122Z,2.60
2019-03-15T22:47:42.910Z,3.03
2019-03-15T22:50:12.321Z,3.00
2019-03-15T22:52:41.098Z,2.70
2019-03-15T22:55:10.407Z,2.90
2019-03-15T22:57:38.974Z,2.63
2019-03-15T23:00:18.411Z,3.33
2019-03-15T23:02:47.122Z,2.63
2019-03-15T23:05:15.678Z,2.50
2019-03-15T23:07:44.347Z,2.93
2019-03-15T23:10:13.237Z,2.93
2019-03-15T23:12:42.041Z,2.90
2019-03-15T23:15:11.550Z,3.03
2019-03-15T23:17:40.137Z,2.80
2019-03-15T23:20:11.230Z,3.07
2019-03-15T23:22:39.955Z,2.40
2019-03-15T23:25:08.786Z,3.00
2019-03-15T23:27:37.532Z,2.67
2019-03-15T23:30:09.395Z,3.00
2019-03-15T23:32:38.086Z,2.80
2019-03-15T23:35:06.760Z,3.37
2019-03-15T23:37:35.447Z,2.40
2019-03-15T23:40:05.309Z,3.10
2019-03-15T23:42:33.988Z,3.80
2019-03-15T23:45:02.616Z,2.80
2019-03-15T23:47:31.199Z,2.83
2019-03-15T23:50:00.014Z,3.80
2019-03-15T23:52:28.799Z,3.20
2019-03-15T23:54:57.456Z,3.37
2019-03-15T23:57:26.037Z,3.60
2019-03-15T23:59:54.537Z,3.00
